createdAt,value
2022-12-29T00:07:51.552Z,11.70
2022-12-29T00:12:11.158Z,11.70
2022-12-29T00:16:22.264Z,11.80
2022-12-29T00:25:48.116Z,11.70
2022-12-29T00:35:11.404Z,11.70
2022-12-29T00:39:42.702Z,11.80
2022-12-29T00:44:08.166Z,11.70
2022-12-29T00:53:20.262Z,11.70
2022-12-29T00:57:37.770Z,11.70
2022-12-29T01:01:49.553Z,11.70
2022-12-29T01:06:00.782Z,11.60
2022-12-29T01:10:13.665Z,11.40
2022-12-29T01:14:25.301Z,11.20
2022-12-29T01:18:38.643Z,11.10
2022-12-29T01:22:48.579Z,11.10
2022-12-29T01:26:58.694Z,11.10
2022-12-29T01:31:16.416Z,11.20
2022-12-29T01:35:26.272Z,11.20
2022-12-29T01:39:35.529Z,11.20
2022-12-29T01:43:47.200Z,11.30
2022-12-29T01:48:13.287Z,11.30
2022-12-29T01:52:28.146Z,11.30
2022-12-29T01:56:38.610Z,11.20
2022-12-29T02:00:53.195Z,11.30
2022-12-29T02:05:13.885Z,11.20
2022-12-29T02:09:23.827Z,11.20
2022-12-29T02:13:33.575Z,11.20
2022-12-29T02:18:04.458Z,11.20
2022-12-29T02:22:22.134Z,11.20
2022-12-29T02:27:15.677Z,11.20
2022-12-29T02:31:39.098Z,11.20
2022-12-29T02:35:59.603Z,11.10
2022-12-29T02:40:24.590Z,11.20
2022-12-29T02:44:45.180Z,11.20
2022-12-29T02:49:02.575Z,11.20
2022-12-29T02:53:49.414Z,11.20
2022-12-29T02:58:22.048Z,11.20
2022-12-29T03:02:53.598Z,11.20
2022-12-29T03:07:20.302Z,11.20
2022-12-29T03:11:57.682Z,11.20
2022-12-29T03:16:15.387Z,11.20
2022-12-29T03:20:35.904Z,11.20
2022-12-29T03:24:52.321Z,11.20
2022-12-29T03:29:03.566Z,11.20
2022-12-29T03:33:17.892Z,11.10
2022-12-29T03:37:38.233Z,11.20
2022-12-29T03:42:04.580Z,11.20
2022-12-29T03:46:16.168Z,11.10
2022-12-29T03:50:28.544Z,11.10
2022-12-29T03:54:38.432Z,11.00
2022-12-29T03:58:55.374Z,11.10
2022-12-29T04:03:05.685Z,11.00
2022-12-29T04:07:42.998Z,11.00
2022-12-29T04:11:56.735Z,11.10
2022-12-29T04:16:08.408Z,11.10
2022-12-29T04:20:43.467Z,11.00
2022-12-29T04:24:53.879Z,11.10
2022-12-29T04:29:03.809Z,11.10
2022-12-29T04:33:20.607Z,11.20
2022-12-29T04:37:39.147Z,11.10
2022-12-29T04:41:49.790Z,11.10
2022-12-29T04:46:01.061Z,11.00
2022-12-29T04:50:13.771Z,11.10
2022-12-29T04:54:26.781Z,11.00
2022-12-29T04:58:38.170Z,10.90
2022-12-29T05:02:47.999Z,10.90
2022-12-29T05:07:00.136Z,10.80
2022-12-29T05:11:09.757Z,10.60
2022-12-29T05:15:20.058Z,10.50
2022-12-29T05:19:29.380Z,10.30
2022-12-29T05:23:40.384Z,10.20
2022-12-29T05:27:49.872Z,10.20
2022-12-29T05:31:59.075Z,10.20
2022-12-29T05:36:12.010Z,10.20
2022-12-29T05:40:23.136Z,10.20
2022-12-29T05:44:32.481Z,10.30
2022-12-29T05:48:44.180Z,10.30
2022-12-29T05:52:53.728Z,10.40
2022-12-29T05:57:04.747Z,10.40
2022-12-29T06:01:14.171Z,10.50
2022-12-29T06:05:23.712Z,10.50
2022-12-29T06:09:37.257Z,10.60
2022-12-29T06:13:48.280Z,10.60
2022-12-29T06:17:57.692Z,10.60
2022-12-29T06:22:08.599Z,10.70
2022-12-29T06:26:17.968Z,10.60
2022-12-29T06:30:29.071Z,10.50
2022-12-29T06:34:38.622Z,10.60
2022-12-29T06:38:47.912Z,10.60
2022-12-29T06:42:57.345Z,10.50
2022-12-29T06:47:10.045Z,10.40
2022-12-29T06:51:19.686Z,10.40
2022-12-29T06:55:29.990Z,10.30
2022-12-29T06:59:39.877Z,10.30
2022-12-29T07:03:54.400Z,10.20
2022-12-29T07:08:03.896Z,10.10
2022-12-29T07:12:13.420Z,10.10
2022-12-29T07:16:23.872Z,10.20
2022-12-29T07:20:36.717Z,10.20
2022-12-29T07:24:47.563Z,10.20
2022-12-29T07:28:57.117Z,10.30
2022-12-29T07:33:06.561Z,10.30
2022-12-29T07:37:20.841Z,10.30
2022-12-29T07:41:30.651Z,10.30
2022-12-29T07:45:40.194Z,10.40
2022-12-29T07:49:49.678Z,10.30
2022-12-29T07:54:01.626Z,10.30
2022-12-29T07:58:10.807Z,10.20
2022-12-29T08:02:27.862Z,10.20
2022-12-29T08:06:40.442Z,10.20
2022-12-29T08:10:52.212Z,10.10
2022-12-29T08:15:01.570Z,10.10
2022-12-29T08:19:12.740Z,10.00
2022-12-29T08:23:22.497Z,10.00
2022-12-29T08:27:34.788Z,9.90
2022-12-29T08:31:44.879Z,10.00
2022-12-29T08:35:58.231Z,10.00
2022-12-29T08:40:09.136Z,10.10
2022-12-29T08:44:20.603Z,10.20
2022-12-29T08:48:30.123Z,10.20
2022-12-29T08:52:40.032Z,10.30
2022-12-29T08:57:04.120Z,10.40
2022-12-29T09:01:41.277Z,10.60
2022-12-29T09:05:52.652Z,10.70
2022-12-29T09:10:02.325Z,10.80
2022-12-29T09:14:11.791Z,10.80
2022-12-29T09:23:29.613Z,10.90
2022-12-29T09:27:44.180Z,10.90
2022-12-29T09:31:54.586Z,11.00
2022-12-29T09:36:05.926Z,11.00
2022-12-29T09:40:31.488Z,11.10
2022-12-29T09:44:58.013Z,11.30
2022-12-29T09:53:29.071Z,11.40
2022-12-29T10:03:19.897Z,11.70
2022-12-29T10:12:43.245Z,11.90
2022-12-29T10:17:08.586Z,11.70
2022-12-29T10:22:21.541Z,11.50
2022-12-29T10:31:34.787Z,11.20
2022-12-29T10:35:46.899Z,11.20
2022-12-29T10:40:18.003Z,11.50
2022-12-29T10:44:32.590Z,11.80
2022-12-29T10:59:03.113Z,11.40
2022-12-29T11:03:41.350Z,11.20
2022-12-29T11:08:01.399Z,11.30
2022-12-29T11:12:32.662Z,11.40
2022-12-29T11:16:46.072Z,11.50
2022-12-29T11:21:05.265Z,11.50
2022-12-29T11:26:02.119Z,11.50
2022-12-29T11:35:08.325Z,11.60
2022-12-29T11:44:17.431Z,11.60
2022-12-29T11:54:05.641Z,11.70
2022-12-29T12:13:33.688Z,12.30
2022-12-29T12:23:29.565Z,12.70
2022-12-29T15:39:36.731Z,10.60
2022-12-29T15:48:40.735Z,10.60
2022-12-29T16:02:43.169Z,10.50
2022-12-29T16:16:29.882Z,10.40
2022-12-29T16:21:12.012Z,10.30
2022-12-29T16:35:03.178Z,10.00
2022-12-29T16:39:40.871Z,9.90
2022-12-29T16:44:22.001Z,9.90
2022-12-29T16:48:36.064Z,9.90
2022-12-29T16:52:50.074Z,9.80
2022-12-29T16:57:06.961Z,9.80
2022-12-29T17:01:20.559Z,9.70
2022-12-29T17:05:33.149Z,9.60
2022-12-29T17:09:43.730Z,9.60
2022-12-29T17:13:57.868Z,9.60
2022-12-29T17:18:13.670Z,9.50
2022-12-29T17:22:36.068Z,9.50
2022-12-29T17:26:51.377Z,9.50
2022-12-29T17:31:24.411Z,9.60
2022-12-29T17:35:34.543Z,9.60
2022-12-29T17:39:43.847Z,9.60
2022-12-29T17:43:53.504Z,9.60
2022-12-29T17:48:04.478Z,9.60
2022-12-29T17:52:21.287Z,9.60
2022-12-29T17:57:10.974Z,9.50
2022-12-29T18:11:53.644Z,9.50
2022-12-29T18:16:06.052Z,9.50
2022-12-29T18:20:15.702Z,9.50
2022-12-29T18:24:28.073Z,9.40
2022-12-29T18:28:37.312Z,9.40
2022-12-29T18:32:47.046Z,9.30
2022-12-29T18:37:13.258Z,9.20
2022-12-29T18:41:30.393Z,9.10
2022-12-29T18:46:02.831Z,9.00
2022-12-29T18:50:12.118Z,8.80
2022-12-29T18:54:31.035Z,8.30
2022-12-29T18:58:42.377Z,7.90
2022-12-29T19:26:04.998Z,7.90
2022-12-29T19:30:23.121Z,8.40
2022-12-29T20:04:46.252Z,9.40
2022-12-29T21:12:55.548Z,9.50
2022-12-29T21:32:57.727Z,9.90
2022-12-29T21:37:23.896Z,10.10
2022-12-29T21:41:40.568Z,10.10
2022-12-29T21:45:53.266Z,10.30
2022-12-29T21:50:03.903Z,10.50
2022-12-29T21:54:32.122Z,10.50
2022-12-29T22:04:15.133Z,10.70
2022-12-29T22:08:42.798Z,10.60
2022-12-29T22:13:09.348Z,10.50
2022-12-29T22:17:28.841Z,10.70
2022-12-29T22:21:39.797Z,10.70
2022-12-29T22:25:52.404Z,10.60
2022-12-29T22:30:03.951Z,10.50
2022-12-29T22:58:31.694Z,10.80
2022-12-29T23:07:40.836Z,10.70
2022-12-29T23:33:19.364Z,10.80
2022-12-29T23:37:35.603Z,10.80
2022-12-29T23:51:36.601Z,11.00
